Abercrombie, North Dakota
Current Conditions -  °F | °C
As of 10:35 PM on Saturday 25 Oct 2014 (Local Time) from KBWP Reporting Station
Clear Clear  
Wind Chill: 37°   Ceiling: Unl
Heat Index: 37°   Visibility: 7mi
Dew Point: 23°   Wind: 0mph
Humidity: 56%   Direction: NA
Pressure: 30.03"   Gusts: NA
Location:  46.45°N, 96.73°W
Report Text: KBWP 260335Z AUTO 00000KT 7SM CLR 03/M05 A3003 RMK AO1
Loading
Personal Weather Stations






























Interactive Weather Map
Tropical Storm Tracking
New forecast layout! Learn more

10-Day Weather Forecast

Advertisements
Track Severe Weather on mobile